sensor_id;sensor_type;location;lat;lon;timestamp;temperature;humidity
46336;DHT22;31365;48.858;8.530;2023-01-29T00:01:10;1.80;99.90
46336;DHT22;31365;48.858;8.530;2023-01-29T00:03:39;1.70;99.90
46336;DHT22;31365;48.858;8.530;2023-01-29T00:06:08;1.70;99.90
46336;DHT22;31365;48.858;8.530;2023-01-29T00:08:38;1.80;99.90
46336;DHT22;31365;48.858;8.530;2023-01-29T00:11:08;1.80;99.90
46336;DHT22;31365;48.858;8.530;2023-01-29T00:13:38;1.70;99.90
46336;DHT22;31365;48.858;8.530;2023-01-29T00:16:07;1.70;99.90
46336;DHT22;31365;48.858;8.530;2023-01-29T00:18:38;1.60;99.90
46336;DHT22;31365;48.858;8.530;2023-01-29T00:21:09;1.60;99.90
46336;DHT22;31365;48.858;8.530;2023-01-29T00:23:38;1.70;99.90
46336;DHT22;31365;48.858;8.530;2023-01-29T00:26:07;1.70;99.90
46336;DHT22;31365;48.858;8.530;2023-01-29T00:28:40;1.60;99.90
46336;DHT22;31365;48.858;8.530;2023-01-29T00:31:09;1.70;99.90
46336;DHT22;31365;48.858;8.530;2023-01-29T00:33:41;1.70;99.90
46336;DHT22;31365;48.858;8.530;2023-01-29T00:36:11;1.60;99.90
46336;DHT22;31365;48.858;8.530;2023-01-29T00:38:41;1.70;99.90
46336;DHT22;31365;48.858;8.530;2023-01-29T00:41:11;1.70;99.90
46336;DHT22;31365;48.858;8.530;2023-01-29T00:44:00;1.70;99.90
46336;DHT22;31365;48.858;8.530;2023-01-29T00:46:47;1.70;99.90
46336;DHT22;31365;48.858;8.530;2023-01-29T00:49:17;1.70;99.90
46336;DHT22;31365;48.858;8.530;2023-01-29T00:51:45;1.50;99.90
46336;DHT22;31365;48.858;8.530;2023-01-29T00:54:34;1.50;99.90
46336;DHT22;31365;48.858;8.530;2023-01-29T00:57:03;1.40;99.90
46336;DHT22;31365;48.858;8.530;2023-01-29T00:59:32;1.40;99.90
46336;DHT22;31365;48.858;8.530;2023-01-29T01:02:01;1.30;99.90
46336;DHT22;31365;48.858;8.530;2023-01-29T01:04:48;1.40;99.90
46336;DHT22;31365;48.858;8.530;2023-01-29T01:07:17;1.40;99.90
46336;DHT22;31365;48.858;8.530;2023-01-29T01:09:46;1.50;99.90
46336;DHT22;31365;48.858;8.530;2023-01-29T01:12:32;1.50;99.90
46336;DHT22;31365;48.858;8.530;2023-01-29T01:15:01;1.40;99.90
46336;DHT22;31365;48.858;8.530;2023-01-29T01:17:29;1.40;99.90
46336;DHT22;31365;48.858;8.530;2023-01-29T01:19:59;1.40;99.90
46336;DHT22;31365;48.858;8.530;2023-01-29T01:22:27;1.40;99.90
46336;DHT22;31365;48.858;8.530;2023-01-29T01:24:56;1.90;99.90
46336;DHT22;31365;48.858;8.530;2023-01-29T01:27:25;1.30;99.90
46336;DHT22;31365;48.858;8.530;2023-01-29T01:29:54;1.30;99.90
46336;DHT22;31365;48.858;8.530;2023-01-29T01:32:23;1.20;99.90
46336;DHT22;31365;48.858;8.530;2023-01-29T01:34:52;1.20;99.90
46336;DHT22;31365;48.858;8.530;2023-01-29T01:37:22;1.20;99.90
46336;DHT22;31365;48.858;8.530;2023-01-29T01:39:51;1.40;99.90
46336;DHT22;31365;48.858;8.530;2023-01-29T01:42:27;1.40;99.90
46336;DHT22;31365;48.858;8.530;2023-01-29T01:44:58;1.40;99.90
46336;DHT22;31365;48.858;8.530;2023-01-29T01:47:34;1.30;99.90
46336;DHT22;31365;48.858;8.530;2023-01-29T01:50:10;2.00;99.90
46336;DHT22;31365;48.858;8.530;2023-01-29T01:52:46;1.40;99.90
46336;DHT22;31365;48.858;8.530;2023-01-29T01:55:22;1.30;99.90
46336;DHT22;31365;48.858;8.530;2023-01-29T01:57:56;1.40;99.90
46336;DHT22;31365;48.858;8.530;2023-01-29T02:00:29;1.30;99.90
46336;DHT22;31365;48.858;8.530;2023-01-29T02:02:58;1.20;99.90
46336;DHT22;31365;48.858;8.530;2023-01-29T02:05:48;1.30;99.90
46336;DHT22;31365;48.858;8.530;2023-01-29T02:08:42;1.30;99.90
46336;DHT22;31365;48.858;8.530;2023-01-29T02:11:35;1.30;99.90
46336;DHT22;31365;48.858;8.530;2023-01-29T02:14:04;1.30;99.90
46336;DHT22;31365;48.858;8.530;2023-01-29T02:16:34;1.30;99.90
46336;DHT22;31365;48.858;8.530;2023-01-29T02:19:06;1.30;99.90
46336;DHT22;31365;48.858;8.530;2023-01-29T02:22:11;1.30;99.90
46336;DHT22;31365;48.858;8.530;2023-01-29T02:25:19;1.30;99.90
46336;DHT22;31365;48.858;8.530;2023-01-29T02:28:15;1.20;99.90
46336;DHT22;31365;48.858;8.530;2023-01-29T02:30:54;1.30;99.90
46336;DHT22;31365;48.858;8.530;2023-01-29T02:33:40;1.30;99.90
46336;DHT22;31365;48.858;8.530;2023-01-29T02:36:27;1.30;99.90
46336;DHT22;31365;48.858;8.530;2023-01-29T02:39:12;1.20;99.90
46336;DHT22;31365;48.858;8.530;2023-01-29T02:41:51;1.20;99.90
46336;DHT22;31365;48.858;8.530;2023-01-29T02:44:31;1.20;99.90
46336;DHT22;31365;48.858;8.530;2023-01-29T02:47:12;1.20;99.90
46336;DHT22;31365;48.858;8.530;2023-01-29T02:49:48;1.30;99.90
46336;DHT22;31365;48.858;8.530;2023-01-29T02:52:27;1.40;99.90
46336;DHT22;31365;48.858;8.530;2023-01-29T02:55:07;1.40;99.90
46336;DHT22;31365;48.858;8.530;2023-01-29T02:57:42;1.40;99.90
46336;DHT22;31365;48.858;8.530;2023-01-29T03:00:17;1.30;99.90
46336;DHT22;31365;48.858;8.530;2023-01-29T03:02:54;1.20;99.90
46336;DHT22;31365;48.858;8.530;2023-01-29T03:05:31;1.10;99.90
46336;DHT22;31365;48.858;8.530;2023-01-29T03:08:07;1.10;99.90
46336;DHT22;31365;48.858;8.530;2023-01-29T03:10:39;1.10;99.90
46336;DHT22;31365;48.858;8.530;2023-01-29T03:13:20;1.20;99.90
46336;DHT22;31365;48.858;8.530;2023-01-29T03:16:03;1.10;99.90
46336;DHT22;31365;48.858;8.530;2023-01-29T03:18:47;1.00;99.90
46336;DHT22;31365;48.858;8.530;2023-01-29T03:21:23;1.00;99.90
46336;DHT22;31365;48.858;8.530;2023-01-29T03:24:29;1.80;99.90
46336;DHT22;31365;48.858;8.530;2023-01-29T03:27:26;1.20;99.90
46336;DHT22;31365;48.858;8.530;2023-01-29T03:30:19;1.30;99.90
46336;DHT22;31365;48.858;8.530;2023-01-29T03:33:23;1.30;99.90
46336;DHT22;31365;48.858;8.530;2023-01-29T03:35:59;1.30;99.90
46336;DHT22;31365;48.858;8.530;2023-01-29T03:38:33;1.30;99.90
46336;DHT22;31365;48.858;8.530;2023-01-29T03:41:07;1.40;99.90
46336;DHT22;31365;48.858;8.530;2023-01-29T03:43:47;1.30;99.90
46336;DHT22;31365;48.858;8.530;2023-01-29T03:46:25;1.30;99.90
46336;DHT22;31365;48.858;8.530;2023-01-29T03:49:08;1.30;99.90
46336;DHT22;31365;48.858;8.530;2023-01-29T03:51:52;1.30;99.90
46336;DHT22;31365;48.858;8.530;2023-01-29T03:54:30;1.30;99.90
46336;DHT22;31365;48.858;8.530;2023-01-29T03:57:12;1.40;99.90
46336;DHT22;31365;48.858;8.530;2023-01-29T03:59:52;1.30;99.90
46336;DHT22;31365;48.858;8.530;2023-01-29T04:02:46;1.30;99.90
46336;DHT22;31365;48.858;8.530;2023-01-29T04:05:24;1.30;99.90
46336;DHT22;31365;48.858;8.530;2023-01-29T04:08:12;1.30;99.90
46336;DHT22;31365;48.858;8.530;2023-01-29T04:10:47;1.20;99.90
46336;DHT22;31365;48.858;8.530;2023-01-29T04:13:19;1.20;99.90
46336;DHT22;31365;48.858;8.530;2023-01-29T04:15:52;1.20;99.90
46336;DHT22;31365;48.858;8.530;2023-01-29T04:18:48;1.20;99.90
46336;DHT22;31365;48.858;8.530;2023-01-29T04:21:26;1.30;99.90
46336;DHT22;31365;48.858;8.530;2023-01-29T04:23:58;1.30;99.90
46336;DHT22;31365;48.858;8.530;2023-01-29T04:26:54;1.30;99.90
46336;DHT22;31365;48.858;8.530;2023-01-29T04:29:39;1.30;99.90
46336;DHT22;31365;48.858;8.530;2023-01-29T04:32:16;1.30;99.90
46336;DHT22;31365;48.858;8.530;2023-01-29T04:34:59;1.30;99.90
46336;DHT22;31365;48.858;8.530;2023-01-29T04:37:35;1.40;99.90
46336;DHT22;31365;48.858;8.530;2023-01-29T04:40:16;1.40;99.90
46336;DHT22;31365;48.858;8.530;2023-01-29T04:42:53;1.40;99.90
46336;DHT22;31365;48.858;8.530;2023-01-29T04:45:38;1.40;99.90
46336;DHT22;31365;48.858;8.530;2023-01-29T04:48:19;1.40;99.90
46336;DHT22;31365;48.858;8.530;2023-01-29T04:50:56;1.30;99.90
46336;DHT22;31365;48.858;8.530;2023-01-29T04:53:43;1.40;99.90
46336;DHT22;31365;48.858;8.530;2023-01-29T04:56:25;1.30;99.90
46336;DHT22;31365;48.858;8.530;2023-01-29T04:59:04;1.20;99.90
46336;DHT22;31365;48.858;8.530;2023-01-29T05:01:38;1.20;99.90
46336;DHT22;31365;48.858;8.530;2023-01-29T05:04:10;1.20;99.90
46336;DHT22;31365;48.858;8.530;2023-01-29T05:06:42;1.20;99.90
46336;DHT22;31365;48.858;8.530;2023-01-29T05:09:15;1.10;99.90
46336;DHT22;31365;48.858;8.530;2023-01-29T05:11:46;1.10;99.90
46336;DHT22;31365;48.858;8.530;2023-01-29T05:14:18;1.10;99.90
46336;DHT22;31365;48.858;8.530;2023-01-29T05:16:51;1.20;99.90
46336;DHT22;31365;48.858;8.530;2023-01-29T05:19:23;1.10;99.90
46336;DHT22;31365;48.858;8.530;2023-01-29T05:21:52;1.10;99.90
46336;DHT22;31365;48.858;8.530;2023-01-29T05:24:24;1.10;99.90
46336;DHT22;31365;48.858;8.530;2023-01-29T05:26:55;1.10;99.90
46336;DHT22;31365;48.858;8.530;2023-01-29T05:29:43;1.20;99.90
46336;DHT22;31365;48.858;8.530;2023-01-29T05:32:13;1.20;99.90
46336;DHT22;31365;48.858;8.530;2023-01-29T05:34:42;1.20;99.90
46336;DHT22;31365;48.858;8.530;2023-01-29T05:37:11;1.20;99.90
46336;DHT22;31365;48.858;8.530;2023-01-29T05:39:40;1.20;99.90
46336;DHT22;31365;48.858;8.530;2023-01-29T05:42:09;1.20;99.90
46336;DHT22;31365;48.858;8.530;2023-01-29T05:44:37;1.20;99.90
46336;DHT22;31365;48.858;8.530;2023-01-29T05:47:07;1.10;99.90
46336;DHT22;31365;48.858;8.530;2023-01-29T05:49:36;1.10;99.90
46336;DHT22;31365;48.858;8.530;2023-01-29T05:52:06;1.20;99.90
46336;DHT22;31365;48.858;8.530;2023-01-29T05:54:34;1.10;99.90
46336;DHT22;31365;48.858;8.530;2023-01-29T05:57:04;1.20;99.90
46336;DHT22;31365;48.858;8.530;2023-01-29T05:59:32;1.20;99.90
46336;DHT22;31365;48.858;8.530;2023-01-29T06:02:00;1.10;99.90
46336;DHT22;31365;48.858;8.530;2023-01-29T06:04:29;1.10;99.90
46336;DHT22;31365;48.858;8.530;2023-01-29T06:06:57;1.10;99.90
46336;DHT22;31365;48.858;8.530;2023-01-29T06:09:26;1.10;99.90
46336;DHT22;31365;48.858;8.530;2023-01-29T06:11:55;1.20;99.90
46336;DHT22;31365;48.858;8.530;2023-01-29T06:14:25;1.20;99.90
46336;DHT22;31365;48.858;8.530;2023-01-29T06:16:53;1.20;99.90
46336;DHT22;31365;48.858;8.530;2023-01-29T06:19:22;1.30;99.90
46336;DHT22;31365;48.858;8.530;2023-01-29T06:21:51;1.30;99.90
46336;DHT22;31365;48.858;8.530;2023-01-29T06:24:19;1.30;99.90
46336;DHT22;31365;48.858;8.530;2023-01-29T06:26:47;1.20;99.90
46336;DHT22;31365;48.858;8.530;2023-01-29T06:29:18;1.20;99.90
46336;DHT22;31365;48.858;8.530;2023-01-29T06:31:49;1.30;99.90
46336;DHT22;31365;48.858;8.530;2023-01-29T06:34:17;1.30;99.90
46336;DHT22;31365;48.858;8.530;2023-01-29T06:36:46;1.30;99.90
46336;DHT22;31365;48.858;8.530;2023-01-29T06:39:15;1.30;99.90
46336;DHT22;31365;48.858;8.530;2023-01-29T06:41:44;1.30;99.90
46336;DHT22;31365;48.858;8.530;2023-01-29T06:44:13;1.20;99.90
46336;DHT22;31365;48.858;8.530;2023-01-29T06:46:41;1.20;99.90
46336;DHT22;31365;48.858;8.530;2023-01-29T06:49:12;1.30;99.90
46336;DHT22;31365;48.858;8.530;2023-01-29T06:51:41;1.30;99.90
46336;DHT22;31365;48.858;8.530;2023-01-29T06:54:09;1.30;99.90
46336;DHT22;31365;48.858;8.530;2023-01-29T06:56:38;1.70;99.90
46336;DHT22;31365;48.858;8.530;2023-01-29T06:59:06;1.30;99.90
46336;DHT22;31365;48.858;8.530;2023-01-29T07:01:38;1.30;99.90
46336;DHT22;31365;48.858;8.530;2023-01-29T07:04:08;1.30;99.90
46336;DHT22;31365;48.858;8.530;2023-01-29T07:06:38;1.30;99.90
46336;DHT22;31365;48.858;8.530;2023-01-29T07:09:06;1.30;99.90
46336;DHT22;31365;48.858;8.530;2023-01-29T07:11:34;1.20;99.90
46336;DHT22;31365;48.858;8.530;2023-01-29T07:14:04;1.20;99.90
46336;DHT22;31365;48.858;8.530;2023-01-29T07:16:33;1.30;99.90
46336;DHT22;31365;48.858;8.530;2023-01-29T07:19:02;1.30;99.90
46336;DHT22;31365;48.858;8.530;2023-01-29T07:21:30;1.30;99.90
46336;DHT22;31365;48.858;8.530;2023-01-29T07:24:01;1.40;99.90
46336;DHT22;31365;48.858;8.530;2023-01-29T07:26:29;1.30;99.90
46336;DHT22;31365;48.858;8.530;2023-01-29T07:28:59;1.30;99.90
46336;DHT22;31365;48.858;8.530;2023-01-29T07:31:27;1.30;99.90
46336;DHT22;31365;48.858;8.530;2023-01-29T07:33:56;1.30;99.90
46336;DHT22;31365;48.858;8.530;2023-01-29T07:36:25;1.30;99.90
46336;DHT22;31365;48.858;8.530;2023-01-29T07:38:54;1.20;99.90
46336;DHT22;31365;48.858;8.530;2023-01-29T07:41:24;1.20;99.90
46336;DHT22;31365;48.858;8.530;2023-01-29T07:43:53;1.20;99.90
46336;DHT22;31365;48.858;8.530;2023-01-29T07:46:22;1.20;99.90
46336;DHT22;31365;48.858;8.530;2023-01-29T07:48:51;1.30;99.90
46336;DHT22;31365;48.858;8.530;2023-01-29T07:51:19;1.30;99.90
46336;DHT22;31365;48.858;8.530;2023-01-29T07:53:47;1.20;99.90
46336;DHT22;31365;48.858;8.530;2023-01-29T07:56:17;1.40;99.90
46336;DHT22;31365;48.858;8.530;2023-01-29T07:58:47;2.20;99.90
46336;DHT22;31365;48.858;8.530;2023-01-29T08:01:15;1.40;99.90
46336;DHT22;31365;48.858;8.530;2023-01-29T08:03:44;1.50;99.90
46336;DHT22;31365;48.858;8.530;2023-01-29T08:06:13;1.50;99.90
46336;DHT22;31365;48.858;8.530;2023-01-29T08:08:41;1.50;99.90
46336;DHT22;31365;48.858;8.530;2023-01-29T08:11:09;1.50;99.90
46336;DHT22;31365;48.858;8.530;2023-01-29T08:13:38;1.40;99.90
46336;DHT22;31365;48.858;8.530;2023-01-29T08:16:08;1.40;99.90
46336;DHT22;31365;48.858;8.530;2023-01-29T08:18:37;1.40;99.90
46336;DHT22;31365;48.858;8.530;2023-01-29T08:21:08;1.40;99.90
46336;DHT22;31365;48.858;8.530;2023-01-29T08:23:39;1.40;99.90
46336;DHT22;31365;48.858;8.530;2023-01-29T08:26:08;1.40;99.90
46336;DHT22;31365;48.858;8.530;2023-01-29T08:28:38;1.50;99.90
46336;DHT22;31365;48.858;8.530;2023-01-29T08:31:13;1.50;99.90
46336;DHT22;31365;48.858;8.530;2023-01-29T08:33:42;1.70;99.90
46336;DHT22;31365;48.858;8.530;2023-01-29T08:36:11;1.70;99.90
46336;DHT22;31365;48.858;8.530;2023-01-29T08:38:40;1.70;99.90
46336;DHT22;31365;48.858;8.530;2023-01-29T08:41:08;1.80;99.90
46336;DHT22;31365;48.858;8.530;2023-01-29T08:43:37;1.80;99.90
46336;DHT22;31365;48.858;8.530;2023-01-29T08:46:07;1.80;99.90
46336;DHT22;31365;48.858;8.530;2023-01-29T08:48:38;1.80;99.90
46336;DHT22;31365;48.858;8.530;2023-01-29T08:51:08;1.80;99.90
46336;DHT22;31365;48.858;8.530;2023-01-29T08:53:36;1.80;99.90
46336;DHT22;31365;48.858;8.530;2023-01-29T08:56:07;1.90;99.90
46336;DHT22;31365;48.858;8.530;2023-01-29T08:58:35;1.90;99.90
46336;DHT22;31365;48.858;8.530;2023-01-29T09:01:05;1.90;99.90
46336;DHT22;31365;48.858;8.530;2023-01-29T09:03:36;1.90;99.90
46336;DHT22;31365;48.858;8.530;2023-01-29T09:06:08;1.90;99.90
46336;DHT22;31365;48.858;8.530;2023-01-29T09:08:39;2.10;99.90
46336;DHT22;31365;48.858;8.530;2023-01-29T09:11:08;2.10;99.90
46336;DHT22;31365;48.858;8.530;2023-01-29T09:13:40;2.10;99.90
46336;DHT22;31365;48.858;8.530;2023-01-29T09:16:08;3.00;99.90
46336;DHT22;31365;48.858;8.530;2023-01-29T09:18:39;2.30;99.90
46336;DHT22;31365;48.858;8.530;2023-01-29T09:21:07;2.30;99.90
46336;DHT22;31365;48.858;8.530;2023-01-29T09:23:36;2.40;99.90
46336;DHT22;31365;48.858;8.530;2023-01-29T09:26:06;2.60;99.90
46336;DHT22;31365;48.858;8.530;2023-01-29T09:28:35;2.40;99.90
46336;DHT22;31365;48.858;8.530;2023-01-29T09:31:03;2.50;99.90
46336;DHT22;31365;48.858;8.530;2023-01-29T09:33:32;2.60;99.90
46336;DHT22;31365;48.858;8.530;2023-01-29T09:36:03;3.40;99.90
46336;DHT22;31365;48.858;8.530;2023-01-29T09:38:32;2.40;99.90
46336;DHT22;31365;48.858;8.530;2023-01-29T09:41:12;2.50;99.90
46336;DHT22;31365;48.858;8.530;2023-01-29T09:43:56;2.50;99.90
46336;DHT22;31365;48.858;8.530;2023-01-29T09:46:33;2.30;99.90
46336;DHT22;31365;48.858;8.530;2023-01-29T09:49:11;2.30;99.90
46336;DHT22;31365;48.858;8.530;2023-01-29T09:51:51;2.30;99.90
46336;DHT22;31365;48.858;8.530;2023-01-29T09:54:25;2.40;99.90
46336;DHT22;31365;48.858;8.530;2023-01-29T09:56:56;2.60;99.90
46336;DHT22;31365;48.858;8.530;2023-01-29T09:59:28;2.60;99.90
46336;DHT22;31365;48.858;8.530;2023-01-29T10:02:08;2.70;99.90
46336;DHT22;31365;48.858;8.530;2023-01-29T10:05:00;2.70;99.90
46336;DHT22;31365;48.858;8.530;2023-01-29T10:08:07;2.90;99.90
46336;DHT22;31365;48.858;8.530;2023-01-29T10:11:02;3.00;99.90
46336;DHT22;31365;48.858;8.530;2023-01-29T10:13:43;3.20;99.90
46336;DHT22;31365;48.858;8.530;2023-01-29T10:16:30;3.10;99.90
46336;DHT22;31365;48.858;8.530;2023-01-29T10:22:44;2.90;99.90
46336;DHT22;31365;48.858;8.530;2023-01-29T10:25:25;2.80;99.90
46336;DHT22;31365;48.858;8.530;2023-01-29T10:27:56;2.80;99.90
46336;DHT22;31365;48.858;8.530;2023-01-29T10:30:30;2.90;99.90
46336;DHT22;31365;48.858;8.530;2023-01-29T10:33:03;3.00;99.90
46336;DHT22;31365;48.858;8.530;2023-01-29T10:35:38;3.10;99.90
46336;DHT22;31365;48.858;8.530;2023-01-29T10:38:20;3.30;99.90
46336;DHT22;31365;48.858;8.530;2023-01-29T10:41:05;3.50;99.90
46336;DHT22;31365;48.858;8.530;2023-01-29T10:43:51;3.70;99.90
46336;DHT22;31365;48.858;8.530;2023-01-29T10:46:41;4.70;99.90
46336;DHT22;31365;48.858;8.530;2023-01-29T10:49:20;4.10;99.90
46336;DHT22;31365;48.858;8.530;2023-01-29T10:52:16;4.20;99.90
46336;DHT22;31365;48.858;8.530;2023-01-29T10:55:07;4.30;99.90
46336;DHT22;31365;48.858;8.530;2023-01-29T10:57:58;4.40;99.90
46336;DHT22;31365;48.858;8.530;2023-01-29T11:00:37;4.30;99.90
46336;DHT22;31365;48.858;8.530;2023-01-29T11:03:16;4.40;99.90
46336;DHT22;31365;48.858;8.530;2023-01-29T11:05:59;4.40;99.90
46336;DHT22;31365;48.858;8.530;2023-01-29T11:08:39;4.30;99.90
46336;DHT22;31365;48.858;8.530;2023-01-29T11:11:14;4.30;99.90
46336;DHT22;31365;48.858;8.530;2023-01-29T11:13:49;4.80;99.90
46336;DHT22;31365;48.858;8.530;2023-01-29T11:16:23;4.50;99.90
46336;DHT22;31365;48.858;8.530;2023-01-29T11:18:54;4.40;99.90
46336;DHT22;31365;48.858;8.530;2023-01-29T11:21:26;4.30;99.90
46336;DHT22;31365;48.858;8.530;2023-01-29T11:24:10;4.10;99.90
46336;DHT22;31365;48.858;8.530;2023-01-29T11:26:45;3.90;99.90
46336;DHT22;31365;48.858;8.530;2023-01-29T11:29:36;3.80;99.90
46336;DHT22;31365;48.858;8.530;2023-01-29T11:32:11;3.80;99.90
46336;DHT22;31365;48.858;8.530;2023-01-29T11:34:56;3.80;99.90
46336;DHT22;31365;48.858;8.530;2023-01-29T11:37:34;3.80;99.90
46336;DHT22;31365;48.858;8.530;2023-01-29T11:43:27;3.90;99.90
46336;DHT22;31365;48.858;8.530;2023-01-29T11:45:59;4.00;99.90
46336;DHT22;31365;48.858;8.530;2023-01-29T11:48:39;4.00;99.90
46336;DHT22;31365;48.858;8.530;2023-01-29T11:51:18;4.40;99.90
46336;DHT22;31365;48.858;8.530;2023-01-29T11:53:51;4.70;99.90
46336;DHT22;31365;48.858;8.530;2023-01-29T11:56:27;4.90;99.90
46336;DHT22;31365;48.858;8.530;2023-01-29T11:58:59;4.90;99.90
46336;DHT22;31365;48.858;8.530;2023-01-29T12:01:33;4.90;99.90
46336;DHT22;31365;48.858;8.530;2023-01-29T12:04:14;4.60;99.90
46336;DHT22;31365;48.858;8.530;2023-01-29T12:06:49;4.10;99.90
46336;DHT22;31365;48.858;8.530;2023-01-29T12:09:21;4.00;99.90
46336;DHT22;31365;48.858;8.530;2023-01-29T12:11:54;3.90;99.90
46336;DHT22;31365;48.858;8.530;2023-01-29T12:14:27;3.80;99.90
46336;DHT22;31365;48.858;8.530;2023-01-29T12:17:03;3.70;99.90
46336;DHT22;31365;48.858;8.530;2023-01-29T12:19:41;4.40;99.90
46336;DHT22;31365;48.858;8.530;2023-01-29T12:22:17;4.80;99.90
46336;DHT22;31365;48.858;8.530;2023-01-29T12:24:56;5.20;99.90
46336;DHT22;31365;48.858;8.530;2023-01-29T12:27:34;5.30;99.90
46336;DHT22;31365;48.858;8.530;2023-01-29T12:30:16;5.10;99.90
46336;DHT22;31365;48.858;8.530;2023-01-29T12:32:54;5.10;99.90
46336;DHT22;31365;48.858;8.530;2023-01-29T12:35:33;4.90;99.90
46336;DHT22;31365;48.858;8.530;2023-01-29T12:38:11;5.20;99.90
46336;DHT22;31365;48.858;8.530;2023-01-29T12:40:47;5.70;99.90
46336;DHT22;31365;48.858;8.530;2023-01-29T12:43:25;5.80;99.90
46336;DHT22;31365;48.858;8.530;2023-01-29T12:46:00;5.50;99.90
46336;DHT22;31365;48.858;8.530;2023-01-29T12:48:32;5.30;99.90
46336;DHT22;31365;48.858;8.530;2023-01-29T12:51:06;5.20;99.90
46336;DHT22;31365;48.858;8.530;2023-01-29T12:53:43;5.20;99.90
46336;DHT22;31365;48.858;8.530;2023-01-29T12:56:25;5.10;99.90
46336;DHT22;31365;48.858;8.530;2023-01-29T12:59:00;4.90;99.90
46336;DHT22;31365;48.858;8.530;2023-01-29T13:01:39;4.90;99.90
46336;DHT22;31365;48.858;8.530;2023-01-29T13:04:17;5.00;99.90
46336;DHT22;31365;48.858;8.530;2023-01-29T13:07:02;4.80;99.90
46336;DHT22;31365;48.858;8.530;2023-01-29T13:09:42;4.90;99.90
46336;DHT22;31365;48.858;8.530;2023-01-29T13:12:17;4.80;99.90
46336;DHT22;31365;48.858;8.530;2023-01-29T13:14:50;4.80;99.90
46336;DHT22;31365;48.858;8.530;2023-01-29T13:17:27;4.90;99.90
46336;DHT22;31365;48.858;8.530;2023-01-29T13:20:03;4.70;99.90
46336;DHT22;31365;48.858;8.530;2023-01-29T13:22:40;4.70;99.90
46336;DHT22;31365;48.858;8.530;2023-01-29T13:25:15;4.70;99.90
46336;DHT22;31365;48.858;8.530;2023-01-29T13:27:46;4.80;99.90
46336;DHT22;31365;48.858;8.530;2023-01-29T13:30:28;4.80;99.90
46336;DHT22;31365;48.858;8.530;2023-01-29T13:33:03;4.90;99.90
46336;DHT22;31365;48.858;8.530;2023-01-29T13:35:39;5.00;99.90
46336;DHT22;31365;48.858;8.530;2023-01-29T13:38:30;4.90;99.90
46336;DHT22;31365;48.858;8.530;2023-01-29T13:41:04;4.80;99.90
46336;DHT22;31365;48.858;8.530;2023-01-29T13:43:37;4.70;99.90
46336;DHT22;31365;48.858;8.530;2023-01-29T13:46:10;4.60;99.90
46336;DHT22;31365;48.858;8.530;2023-01-29T13:48:45;4.50;99.90
46336;DHT22;31365;48.858;8.530;2023-01-29T13:51:19;4.60;99.90
46336;DHT22;31365;48.858;8.530;2023-01-29T13:53:53;4.50;99.90
46336;DHT22;31365;48.858;8.530;2023-01-29T13:56:29;4.50;99.90
46336;DHT22;31365;48.858;8.530;2023-01-29T13:59:21;4.70;99.90
46336;DHT22;31365;48.858;8.530;2023-01-29T14:02:02;4.90;99.90
46336;DHT22;31365;48.858;8.530;2023-01-29T14:04:48;4.90;99.90
46336;DHT22;31365;48.858;8.530;2023-01-29T14:07:48;4.90;99.90
46336;DHT22;31365;48.858;8.530;2023-01-29T14:10:19;4.90;99.90
46336;DHT22;31365;48.858;8.530;2023-01-29T14:12:51;4.70;99.90
46336;DHT22;31365;48.858;8.530;2023-01-29T14:15:27;4.60;99.90
46336;DHT22;31365;48.858;8.530;2023-01-29T14:20:59;4.40;99.90
46336;DHT22;31365;48.858;8.530;2023-01-29T14:23:42;4.40;99.90
46336;DHT22;31365;48.858;8.530;2023-01-29T14:26:33;4.80;99.90
46336;DHT22;31365;48.858;8.530;2023-01-29T14:29:17;4.30;99.90
46336;DHT22;31365;48.858;8.530;2023-01-29T14:32:13;4.30;99.90
46336;DHT22;31365;48.858;8.530;2023-01-29T14:34:49;4.20;99.90
46336;DHT22;31365;48.858;8.530;2023-01-29T14:37:30;4.20;99.90
46336;DHT22;31365;48.858;8.530;2023-01-29T14:40:14;4.20;99.90
46336;DHT22;31365;48.858;8.530;2023-01-29T14:42:56;5.10;99.90
46336;DHT22;31365;48.858;8.530;2023-01-29T14:45:28;3.90;99.90
46336;DHT22;31365;48.858;8.530;2023-01-29T14:48:04;3.70;99.90
46336;DHT22;31365;48.858;8.530;2023-01-29T14:51:05;4.00;99.90
46336;DHT22;31365;48.858;8.530;2023-01-29T14:53:55;3.60;99.90
46336;DHT22;31365;48.858;8.530;2023-01-29T14:56:32;3.90;99.90
46336;DHT22;31365;48.858;8.530;2023-01-29T14:59:12;3.40;99.90
46336;DHT22;31365;48.858;8.530;2023-01-29T15:01:47;3.90;99.90
46336;DHT22;31365;48.858;8.530;2023-01-29T15:04:25;3.30;99.90
46336;DHT22;31365;48.858;8.530;2023-01-29T15:07:00;3.20;99.90
46336;DHT22;31365;48.858;8.530;2023-01-29T15:09:38;3.10;99.90
46336;DHT22;31365;48.858;8.530;2023-01-29T15:12:18;3.00;99.90
46336;DHT22;31365;48.858;8.530;2023-01-29T15:15:03;3.00;99.90
46336;DHT22;31365;48.858;8.530;2023-01-29T15:17:40;2.90;99.90
46336;DHT22;31365;48.858;8.530;2023-01-29T15:20:30;2.90;99.90
46336;DHT22;31365;48.858;8.530;2023-01-29T15:23:19;2.80;99.90
46336;DHT22;31365;48.858;8.530;2023-01-29T15:25:54;2.80;99.90
46336;DHT22;31365;48.858;8.530;2023-01-29T15:28:28;2.80;99.90
46336;DHT22;31365;48.858;8.530;2023-01-29T15:31:00;2.80;99.90
46336;DHT22;31365;48.858;8.530;2023-01-29T15:33:31;2.70;99.90
46336;DHT22;31365;48.858;8.530;2023-01-29T15:36:03;2.70;99.90
46336;DHT22;31365;48.858;8.530;2023-01-29T15:38:34;2.60;99.90
46336;DHT22;31365;48.858;8.530;2023-01-29T15:41:16;2.60;99.90
46336;DHT22;31365;48.858;8.530;2023-01-29T15:43:47;2.50;99.90
46336;DHT22;31365;48.858;8.530;2023-01-29T15:46:23;2.50;99.90
46336;DHT22;31365;48.858;8.530;2023-01-29T15:48:56;2.50;99.90
46336;DHT22;31365;48.858;8.530;2023-01-29T15:51:30;2.50;99.90
46336;DHT22;31365;48.858;8.530;2023-01-29T15:54:01;2.80;99.90
46336;DHT22;31365;48.858;8.530;2023-01-29T15:56:37;2.40;99.90
46336;DHT22;31365;48.858;8.530;2023-01-29T15:59:15;2.30;99.90
46336;DHT22;31365;48.858;8.530;2023-01-29T16:01:45;2.20;99.90
46336;DHT22;31365;48.858;8.530;2023-01-29T16:04:20;2.10;99.90
46336;DHT22;31365;48.858;8.530;2023-01-29T16:06:53;2.00;99.90
46336;DHT22;31365;48.858;8.530;2023-01-29T16:09:25;2.00;99.90
46336;DHT22;31365;48.858;8.530;2023-01-29T16:11:57;2.10;99.90
46336;DHT22;31365;48.858;8.530;2023-01-29T16:14:27;2.00;99.90
46336;DHT22;31365;48.858;8.530;2023-01-29T16:17:09;2.00;99.90
46336;DHT22;31365;48.858;8.530;2023-01-29T16:19:54;1.90;99.90
46336;DHT22;31365;48.858;8.530;2023-01-29T16:22:25;1.90;99.90
46336;DHT22;31365;48.858;8.530;2023-01-29T16:24:57;1.90;99.90
46336;DHT22;31365;48.858;8.530;2023-01-29T16:27:31;1.80;99.90
46336;DHT22;31365;48.858;8.530;2023-01-29T16:30:00;1.80;99.90
46336;DHT22;31365;48.858;8.530;2023-01-29T16:32:31;1.70;99.90
46336;DHT22;31365;48.858;8.530;2023-01-29T16:35:01;1.60;99.90
46336;DHT22;31365;48.858;8.530;2023-01-29T16:37:33;1.40;99.90
46336;DHT22;31365;48.858;8.530;2023-01-29T16:40:12;1.30;99.90
46336;DHT22;31365;48.858;8.530;2023-01-29T16:42:44;1.20;99.90
46336;DHT22;31365;48.858;8.530;2023-01-29T16:45:25;1.10;99.90
46336;DHT22;31365;48.858;8.530;2023-01-29T16:47:59;1.10;99.90